sensor_id;sensor_type;location;lat;lon;timestamp;temperature;humidity
42905;DHT22;28550;51.228;4.528;2022-09-29T00:01:29;6.90;91.20
42905;DHT22;28550;51.228;4.528;2022-09-29T00:04:02;7.00;87.40
42905;DHT22;28550;51.228;4.528;2022-09-29T00:06:35;6.90;90.90
42905;DHT22;28550;51.228;4.528;2022-09-29T00:09:04;6.90;90.10
42905;DHT22;28550;51.228;4.528;2022-09-29T00:11:30;6.80;89.30
42905;DHT22;28550;51.228;4.528;2022-09-29T00:13:56;6.80;89.20
42905;DHT22;28550;51.228;4.528;2022-09-29T00:16:21;6.80;89.20
42905;DHT22;28550;51.228;4.528;2022-09-29T00:18:47;6.70;88.80
42905;DHT22;28550;51.228;4.528;2022-09-29T00:21:17;6.70;90.50
42905;DHT22;28550;51.228;4.528;2022-09-29T00:23:47;6.70;91.30
42905;DHT22;28550;51.228;4.528;2022-09-29T00:26:23;6.80;91.00
42905;DHT22;28550;51.228;4.528;2022-09-29T00:28:54;6.80;89.10
42905;DHT22;28550;51.228;4.528;2022-09-29T00:31:28;6.70;91.10
42905;DHT22;28550;51.228;4.528;2022-09-29T00:33:54;6.70;91.40
42905;DHT22;28550;51.228;4.528;2022-09-29T00:36:21;6.70;90.20
42905;DHT22;28550;51.228;4.528;2022-09-29T00:38:48;6.70;91.60
42905;DHT22;28550;51.228;4.528;2022-09-29T00:41:26;6.70;91.30
42905;DHT22;28550;51.228;4.528;2022-09-29T00:43:59;6.60;92.10
42905;DHT22;28550;51.228;4.528;2022-09-29T00:46:52;6.60;92.00
42905;DHT22;28550;51.228;4.528;2022-09-29T00:49:42;6.60;92.40
42905;DHT22;28550;51.228;4.528;2022-09-29T00:52:19;6.60;92.40
42905;DHT22;28550;51.228;4.528;2022-09-29T00:54:51;6.60;92.60
42905;DHT22;28550;51.228;4.528;2022-09-29T00:57:39;6.50;92.10
42905;DHT22;28550;51.228;4.528;2022-09-29T01:00:13;6.50;92.80
42905;DHT22;28550;51.228;4.528;2022-09-29T01:02:52;6.60;92.10
42905;DHT22;28550;51.228;4.528;2022-09-29T01:05:26;6.60;92.10
42905;DHT22;28550;51.228;4.528;2022-09-29T01:08:02;6.60;91.40
42905;DHT22;28550;51.228;4.528;2022-09-29T01:10:30;6.60;91.50
42905;DHT22;28550;51.228;4.528;2022-09-29T01:12:59;6.60;90.10
42905;DHT22;28550;51.228;4.528;2022-09-29T01:15:24;6.60;90.40
42905;DHT22;28550;51.228;4.528;2022-09-29T01:17:56;6.50;91.00
42905;DHT22;28550;51.228;4.528;2022-09-29T01:20:33;6.50;90.00
42905;DHT22;28550;51.228;4.528;2022-09-29T01:32:46;6.40;91.50
42905;DHT22;28550;51.228;4.528;2022-09-29T01:47:06;6.30;92.00
42905;DHT22;28550;51.228;4.528;2022-09-29T01:49:50;6.30;92.00
42905;DHT22;28550;51.228;4.528;2022-09-29T01:52:24;6.30;91.70
42905;DHT22;28550;51.228;4.528;2022-09-29T01:55:17;6.30;91.60
42905;DHT22;28550;51.228;4.528;2022-09-29T01:58:01;6.30;91.50
42905;DHT22;28550;51.228;4.528;2022-09-29T02:00:52;6.30;92.40
42905;DHT22;28550;51.228;4.528;2022-09-29T02:03:28;6.30;92.00
42905;DHT22;28550;51.228;4.528;2022-09-29T02:06:10;6.20;92.50
42905;DHT22;28550;51.228;4.528;2022-09-29T02:08:51;6.20;92.50
42905;DHT22;28550;51.228;4.528;2022-09-29T02:11:20;6.10;92.70
42905;DHT22;28550;51.228;4.528;2022-09-29T02:16:30;6.10;92.00
42905;DHT22;28550;51.228;4.528;2022-09-29T02:19:18;6.20;92.40
42905;DHT22;28550;51.228;4.528;2022-09-29T02:21:48;6.30;92.50
42905;DHT22;28550;51.228;4.528;2022-09-29T02:24:23;6.20;91.10
42905;DHT22;28550;51.228;4.528;2022-09-29T02:27:21;6.20;91.20
42905;DHT22;28550;51.228;4.528;2022-09-29T02:30:00;6.20;91.60
42905;DHT22;28550;51.228;4.528;2022-09-29T02:32:35;6.10;90.00
42905;DHT22;28550;51.228;4.528;2022-09-29T02:35:05;6.20;92.20
42905;DHT22;28550;51.228;4.528;2022-09-29T02:40:28;6.00;93.00
42905;DHT22;28550;51.228;4.528;2022-09-29T02:46:21;6.00;91.60
42905;DHT22;28550;51.228;4.528;2022-09-29T02:52:56;6.10;93.30
42905;DHT22;28550;51.228;4.528;2022-09-29T03:00:36;6.20;91.60
42905;DHT22;28550;51.228;4.528;2022-09-29T03:03:02;6.20;91.10
42905;DHT22;28550;51.228;4.528;2022-09-29T03:05:46;6.10;90.50
42905;DHT22;28550;51.228;4.528;2022-09-29T03:08:15;6.20;91.70
42905;DHT22;28550;51.228;4.528;2022-09-29T03:10:47;6.20;90.60
42905;DHT22;28550;51.228;4.528;2022-09-29T03:13:12;6.10;90.00
42905;DHT22;28550;51.228;4.528;2022-09-29T03:15:38;6.00;91.50
42905;DHT22;28550;51.228;4.528;2022-09-29T03:18:04;5.80;90.70
42905;DHT22;28550;51.228;4.528;2022-09-29T03:20:43;5.80;90.80
42905;DHT22;28550;51.228;4.528;2022-09-29T03:23:18;5.90;88.70
42905;DHT22;28550;51.228;4.528;2022-09-29T03:26:03;5.80;89.50
42905;DHT22;28550;51.228;4.528;2022-09-29T03:31:30;5.80;91.50
42905;DHT22;28550;51.228;4.528;2022-09-29T03:33:58;5.80;92.00
42905;DHT22;28550;51.228;4.528;2022-09-29T03:36:53;5.70;89.30
42905;DHT22;28550;51.228;4.528;2022-09-29T03:42:07;5.80;92.30
42905;DHT22;28550;51.228;4.528;2022-09-29T03:47:30;5.80;91.70
42905;DHT22;28550;51.228;4.528;2022-09-29T03:49:56;5.80;90.90
42905;DHT22;28550;51.228;4.528;2022-09-29T03:52:25;5.80;91.30
42905;DHT22;28550;51.228;4.528;2022-09-29T03:55:01;5.80;89.60
42905;DHT22;28550;51.228;4.528;2022-09-29T03:57:29;5.80;90.90
42905;DHT22;28550;51.228;4.528;2022-09-29T04:00:05;5.80;89.50
42905;DHT22;28550;51.228;4.528;2022-09-29T04:02:53;5.80;91.00
42905;DHT22;28550;51.228;4.528;2022-09-29T04:05:39;5.70;91.10
42905;DHT22;28550;51.228;4.528;2022-09-29T04:08:10;5.70;91.90
42905;DHT22;28550;51.228;4.528;2022-09-29T04:10:40;5.70;90.80
42905;DHT22;28550;51.228;4.528;2022-09-29T04:13:32;5.70;90.80
42905;DHT22;28550;51.228;4.528;2022-09-29T04:16:00;5.70;90.20
42905;DHT22;28550;51.228;4.528;2022-09-29T04:19:14;5.70;91.20
42905;DHT22;28550;51.228;4.528;2022-09-29T04:22:08;5.70;90.60
42905;DHT22;28550;51.228;4.528;2022-09-29T04:24:48;5.60;88.80
42905;DHT22;28550;51.228;4.528;2022-09-29T04:30:25;5.60;91.70
42905;DHT22;28550;51.228;4.528;2022-09-29T04:32:53;5.50;91.80
42905;DHT22;28550;51.228;4.528;2022-09-29T04:35:18;5.50;91.20
42905;DHT22;28550;51.228;4.528;2022-09-29T04:38:03;5.50;91.00
42905;DHT22;28550;51.228;4.528;2022-09-29T04:40:35;5.50;90.40
42905;DHT22;28550;51.228;4.528;2022-09-29T04:43:04;5.50;91.80
42905;DHT22;28550;51.228;4.528;2022-09-29T04:45:30;5.50;90.00
42905;DHT22;28550;51.228;4.528;2022-09-29T04:48:16;5.50;88.60
42905;DHT22;28550;51.228;4.528;2022-09-29T04:50:49;5.50;90.70
42905;DHT22;28550;51.228;4.528;2022-09-29T04:53:21;5.50;89.80
42905;DHT22;28550;51.228;4.528;2022-09-29T04:55:55;5.50;91.50
42905;DHT22;28550;51.228;4.528;2022-09-29T04:58:40;5.40;91.80
42905;DHT22;28550;51.228;4.528;2022-09-29T05:04:07;5.30;91.20
42905;DHT22;28550;51.228;4.528;2022-09-29T05:06:53;5.30;90.70
42905;DHT22;28550;51.228;4.528;2022-09-29T05:09:32;5.30;93.30
42905;DHT22;28550;51.228;4.528;2022-09-29T05:12:16;5.30;93.50
42905;DHT22;28550;51.228;4.528;2022-09-29T05:17:47;5.40;93.40
42905;DHT22;28550;51.228;4.528;2022-09-29T05:20:13;5.40;92.20
42905;DHT22;28550;51.228;4.528;2022-09-29T05:22:46;5.40;92.60
42905;DHT22;28550;51.228;4.528;2022-09-29T05:27:59;5.40;92.50
42905;DHT22;28550;51.228;4.528;2022-09-29T05:30:36;5.50;92.00
42905;DHT22;28550;51.228;4.528;2022-09-29T05:33:13;5.40;91.60
42905;DHT22;28550;51.228;4.528;2022-09-29T05:36:14;5.40;92.00
42905;DHT22;28550;51.228;4.528;2022-09-29T05:38:46;5.40;90.50
42905;DHT22;28550;51.228;4.528;2022-09-29T05:41:24;5.40;90.60
42905;DHT22;28550;51.228;4.528;2022-09-29T05:43:57;5.40;92.40
42905;DHT22;28550;51.228;4.528;2022-09-29T05:46:26;5.50;90.90
42905;DHT22;28550;51.228;4.528;2022-09-29T05:49:10;5.40;91.60
42905;DHT22;28550;51.228;4.528;2022-09-29T05:51:51;5.40;91.60
42905;DHT22;28550;51.228;4.528;2022-09-29T05:54:29;5.50;91.40
42905;DHT22;28550;51.228;4.528;2022-09-29T05:57:18;5.50;90.50
42905;DHT22;28550;51.228;4.528;2022-09-29T05:59:43;5.50;92.00
42905;DHT22;28550;51.228;4.528;2022-09-29T06:02:11;5.60;91.60
42905;DHT22;28550;51.228;4.528;2022-09-29T06:08:10;5.60;93.10
42905;DHT22;28550;51.228;4.528;2022-09-29T06:11:10;5.60;91.50
42905;DHT22;28550;51.228;4.528;2022-09-29T06:13:48;5.70;93.40
42905;DHT22;28550;51.228;4.528;2022-09-29T06:16:33;5.80;92.80
42905;DHT22;28550;51.228;4.528;2022-09-29T06:19:03;5.80;91.40
42905;DHT22;28550;51.228;4.528;2022-09-29T06:21:41;5.80;93.10
42905;DHT22;28550;51.228;4.528;2022-09-29T06:24:06;5.90;93.50
42905;DHT22;28550;51.228;4.528;2022-09-29T06:26:58;6.20;94.40
42905;DHT22;28550;51.228;4.528;2022-09-29T06:29:28;6.80;95.70
42905;DHT22;28550;51.228;4.528;2022-09-29T06:32:18;7.20;96.20
42905;DHT22;28550;51.228;4.528;2022-09-29T06:34:47;8.00;96.60
42905;DHT22;28550;51.228;4.528;2022-09-29T06:37:31;8.70;98.10
42905;DHT22;28550;51.228;4.528;2022-09-29T06:40:01;9.20;98.40
42905;DHT22;28550;51.228;4.528;2022-09-29T06:42:27;9.60;98.70
42905;DHT22;28550;51.228;4.528;2022-09-29T06:44:54;10.30;98.20
42905;DHT22;28550;51.228;4.528;2022-09-29T06:47:26;10.70;97.70
42905;DHT22;28550;51.228;4.528;2022-09-29T06:49:52;11.20;96.20
42905;DHT22;28550;51.228;4.528;2022-09-29T06:52:18;11.60;90.60
42905;DHT22;28550;51.228;4.528;2022-09-29T06:54:45;12.00;87.70
42905;DHT22;28550;51.228;4.528;2022-09-29T06:57:11;12.60;78.10
42905;DHT22;28550;51.228;4.528;2022-09-29T06:59:38;13.10;68.50
42905;DHT22;28550;51.228;4.528;2022-09-29T07:02:11;13.60;59.00
42905;DHT22;28550;51.228;4.528;2022-09-29T07:04:37;14.00;43.80
42905;DHT22;28550;51.228;4.528;2022-09-29T07:07:06;14.30;32.20
42905;DHT22;28550;51.228;4.528;2022-09-29T07:09:34;14.50;20.60
42905;DHT22;28550;51.228;4.528;2022-09-29T07:12:41;14.70;16.10
42905;DHT22;28550;51.228;4.528;2022-09-29T07:15:17;15.30;1.00
42905;DHT22;28550;51.228;4.528;2022-09-29T07:17:43;15.40;1.00
42905;DHT22;28550;51.228;4.528;2022-09-29T07:20:09;15.70;99.90
42905;DHT22;28550;51.228;4.528;2022-09-29T07:22:37;15.60;1.00
42905;DHT22;28550;51.228;4.528;2022-09-29T07:25:12;16.00;23.90
42905;DHT22;28550;51.228;4.528;2022-09-29T07:27:38;16.40;1.00
42905;DHT22;28550;51.228;4.528;2022-09-29T07:30:04;16.90;1.00
42905;DHT22;28550;51.228;4.528;2022-09-29T07:32:33;17.30;1.00
42905;DHT22;28550;51.228;4.528;2022-09-29T07:34:58;18.00;1.00
42905;DHT22;28550;51.228;4.528;2022-09-29T07:40:59;18.60;1.00
42905;DHT22;28550;51.228;4.528;2022-09-29T07:43:41;19.10;1.00
42905;DHT22;28550;51.228;4.528;2022-09-29T07:46:10;19.40;1.00
42905;DHT22;28550;51.228;4.528;2022-09-29T07:48:36;19.50;99.90
42905;DHT22;28550;51.228;4.528;2022-09-29T07:51:22;20.00;99.90
42905;DHT22;28550;51.228;4.528;2022-09-29T07:53:53;20.40;1.00
42905;DHT22;28550;51.228;4.528;2022-09-29T07:56:21;20.50;99.90
42905;DHT22;28550;51.228;4.528;2022-09-29T08:02:16;21.00;99.90
42905;DHT22;28550;51.228;4.528;2022-09-29T08:05:01;21.20;99.90
42905;DHT22;28550;51.228;4.528;2022-09-29T08:07:32;21.80;43.50
42905;DHT22;28550;51.228;4.528;2022-09-29T08:10:16;22.20;1.00
42905;DHT22;28550;51.228;4.528;2022-09-29T08:12:45;22.80;1.00
42905;DHT22;28550;51.228;4.528;2022-09-29T08:15:11;22.70;1.00
42905;DHT22;28550;51.228;4.528;2022-09-29T08:17:37;22.70;1.00
42905;DHT22;28550;51.228;4.528;2022-09-29T08:20:02;22.30;1.00
42905;DHT22;28550;51.228;4.528;2022-09-29T08:22:44;22.60;1.00
42905;DHT22;28550;51.228;4.528;2022-09-29T08:25:11;23.00;1.00
42905;DHT22;28550;51.228;4.528;2022-09-29T08:28:06;22.80;1.00
42905;DHT22;28550;51.228;4.528;2022-09-29T08:30:37;23.10;1.00
42905;DHT22;28550;51.228;4.528;2022-09-29T08:33:37;23.40;1.00
42905;DHT22;28550;51.228;4.528;2022-09-29T08:39:04;24.00;1.00
42905;DHT22;28550;51.228;4.528;2022-09-29T08:51:10;24.70;99.90
42905;DHT22;28550;51.228;4.528;2022-09-29T08:53:52;24.70;99.90
42905;DHT22;28550;51.228;4.528;2022-09-29T08:56:19;25.00;99.90
42905;DHT22;28550;51.228;4.528;2022-09-29T08:58:45;25.60;99.90
42905;DHT22;28550;51.228;4.528;2022-09-29T09:23:39;27.70;99.90
42905;DHT22;28550;51.228;4.528;2022-09-29T09:26:44;27.60;99.90
42905;DHT22;28550;51.228;4.528;2022-09-29T09:29:41;27.20;99.90
42905;DHT22;28550;51.228;4.528;2022-09-29T09:32:30;25.80;99.90
42905;DHT22;28550;51.228;4.528;2022-09-29T09:51:57;18.20;1.00
42905;DHT22;28550;51.228;4.528;2022-09-29T09:55:12;18.80;99.90
42905;DHT22;28550;51.228;4.528;2022-09-29T10:01:55;22.60;99.90
42905;DHT22;28550;51.228;4.528;2022-09-29T10:11:49;25.70;99.90
42905;DHT22;28550;51.228;4.528;2022-09-29T10:14:29;27.30;99.90
42905;DHT22;28550;51.228;4.528;2022-09-29T10:17:07;27.60;99.90
42905;DHT22;28550;51.228;4.528;2022-09-29T10:20:11;27.40;99.90
42905;DHT22;28550;51.228;4.528;2022-09-29T10:23:15;27.70;99.90
42905;DHT22;28550;51.228;4.528;2022-09-29T10:33:03;30.10;99.90
42905;DHT22;28550;51.228;4.528;2022-09-29T10:38:54;30.00;99.90
42905;DHT22;28550;51.228;4.528;2022-09-29T10:41:28;30.20;99.90
42905;DHT22;28550;51.228;4.528;2022-09-29T10:44:18;30.30;99.90
42905;DHT22;28550;51.228;4.528;2022-09-29T10:47:21;30.70;99.90
42905;DHT22;28550;51.228;4.528;2022-09-29T10:57:20;32.90;99.90
42905;DHT22;28550;51.228;4.528;2022-09-29T11:00:06;31.90;99.90
42905;DHT22;28550;51.228;4.528;2022-09-29T11:02:49;32.10;99.90
42905;DHT22;28550;51.228;4.528;2022-09-29T11:05:21;32.60;99.90
42905;DHT22;28550;51.228;4.528;2022-09-29T11:08:10;33.40;99.90
42905;DHT22;28550;51.228;4.528;2022-09-29T11:11:21;33.50;99.90
42905;DHT22;28550;51.228;4.528;2022-09-29T11:13:49;33.80;99.90
42905;DHT22;28550;51.228;4.528;2022-09-29T11:16:41;31.90;99.90
42905;DHT22;28550;51.228;4.528;2022-09-29T11:19:22;29.40;99.90
42905;DHT22;28550;51.228;4.528;2022-09-29T11:28:39;24.20;99.90
42905;DHT22;28550;51.228;4.528;2022-09-29T11:34:51;21.70;99.90
42905;DHT22;28550;51.228;4.528;2022-09-29T12:13:47;22.40;99.90
42905;DHT22;28550;51.228;4.528;2022-09-29T12:16:34;22.10;99.90
42905;DHT22;28550;51.228;4.528;2022-09-29T12:19:36;21.50;99.90
42905;DHT22;28550;51.228;4.528;2022-09-29T12:22:08;21.30;99.90
42905;DHT22;28550;51.228;4.528;2022-09-29T12:24:56;20.40;99.90
42905;DHT22;28550;51.228;4.528;2022-09-29T12:27:55;20.10;99.90
42905;DHT22;28550;51.228;4.528;2022-09-29T12:31:05;19.90;99.90
42905;DHT22;28550;51.228;4.528;2022-09-29T12:37:33;20.30;99.90
42905;DHT22;28550;51.228;4.528;2022-09-29T12:43:18;20.10;99.90
42905;DHT22;28550;51.228;4.528;2022-09-29T12:48:53;19.80;99.90
42905;DHT22;28550;51.228;4.528;2022-09-29T12:51:32;19.70;99.90
42905;DHT22;28550;51.228;4.528;2022-09-29T12:54:25;20.00;99.90
42905;DHT22;28550;51.228;4.528;2022-09-29T12:57:13;20.30;99.90
42905;DHT22;28550;51.228;4.528;2022-09-29T12:59:54;21.20;99.90
42905;DHT22;28550;51.228;4.528;2022-09-29T13:05:40;24.90;99.90
42905;DHT22;28550;51.228;4.528;2022-09-29T13:29:49;26.80;99.90
42905;DHT22;28550;51.228;4.528;2022-09-29T13:35:14;29.60;99.90
42905;DHT22;28550;51.228;4.528;2022-09-29T13:51:06;30.40;99.90
42905;DHT22;28550;51.228;4.528;2022-09-29T13:57:24;33.30;99.90
42905;DHT22;28550;51.228;4.528;2022-09-29T14:02:59;30.50;99.90
42905;DHT22;28550;51.228;4.528;2022-09-29T14:10:37;26.60;99.90
42905;DHT22;28550;51.228;4.528;2022-09-29T14:27:45;25.20;99.90
42905;DHT22;28550;51.228;4.528;2022-09-29T14:30:36;24.20;99.90
42905;DHT22;28550;51.228;4.528;2022-09-29T14:33:15;23.30;99.90
42905;DHT22;28550;51.228;4.528;2022-09-29T14:36:29;22.20;99.90
42905;DHT22;28550;51.228;4.528;2022-09-29T14:39:41;21.60;99.90
42905;DHT22;28550;51.228;4.528;2022-09-29T14:53:01;19.30;99.90
42905;DHT22;28550;51.228;4.528;2022-09-29T14:55:38;19.10;99.90
42905;DHT22;28550;51.228;4.528;2022-09-29T14:58:42;19.10;99.90
42905;DHT22;28550;51.228;4.528;2022-09-29T15:01:23;19.00;99.90
42905;DHT22;28550;51.228;4.528;2022-09-29T15:07:27;18.60;99.90
42905;DHT22;28550;51.228;4.528;2022-09-29T15:09:58;18.50;99.90
42905;DHT22;28550;51.228;4.528;2022-09-29T15:12:37;18.10;1.00
42905;DHT22;28550;51.228;4.528;2022-09-29T15:15:30;17.80;96.50
42905;DHT22;28550;51.228;4.528;2022-09-29T15:21:05;17.40;99.90
42905;DHT22;28550;51.228;4.528;2022-09-29T15:27:12;17.10;1.00
42905;DHT22;28550;51.228;4.528;2022-09-29T15:30:19;16.90;1.00
42905;DHT22;28550;51.228;4.528;2022-09-29T15:33:05;16.70;99.90
42905;DHT22;28550;51.228;4.528;2022-09-29T15:35:33;16.90;1.00
42905;DHT22;28550;51.228;4.528;2022-09-29T15:38:33;17.30;99.90
42905;DHT22;28550;51.228;4.528;2022-09-29T15:41:26;17.50;99.90
42905;DHT22;28550;51.228;4.528;2022-09-29T15:44:51;17.30;1.00
42905;DHT22;28550;51.228;4.528;2022-09-29T15:48:09;16.80;99.90
42905;DHT22;28550;51.228;4.528;2022-09-29T16:00:59;15.50;99.90
42905;DHT22;28550;51.228;4.528;2022-09-29T16:04:03;15.20;99.90
42905;DHT22;28550;51.228;4.528;2022-09-29T16:07:20;15.10;1.00
42905;DHT22;28550;51.228;4.528;2022-09-29T16:09:50;14.80;1.00
42905;DHT22;28550;51.228;4.528;2022-09-29T16:12:34;14.80;1.00
42905;DHT22;28550;51.228;4.528;2022-09-29T16:15:56;14.80;1.00
42905;DHT22;28550;51.228;4.528;2022-09-29T16:18:47;14.90;1.00
42905;DHT22;28550;51.228;4.528;2022-09-29T16:21:30;14.90;1.00
42905;DHT22;28550;51.228;4.528;2022-09-29T16:24:32;14.80;1.00
42905;DHT22;28550;51.228;4.528;2022-09-29T16:27:44;14.70;1.00
42905;DHT22;28550;51.228;4.528;2022-09-29T16:30:42;14.50;1.00
42905;DHT22;28550;51.228;4.528;2022-09-29T16:33:32;14.40;1.00
42905;DHT22;28550;51.228;4.528;2022-09-29T16:36:13;14.30;1.00
42905;DHT22;28550;51.228;4.528;2022-09-29T16:38:46;14.10;1.00
42905;DHT22;28550;51.228;4.528;2022-09-29T16:41:33;14.00;1.00
42905;DHT22;28550;51.228;4.528;2022-09-29T16:44:23;13.80;1.00
42905;DHT22;28550;51.228;4.528;2022-09-29T16:49:34;13.70;1.00
42905;DHT22;28550;51.228;4.528;2022-09-29T16:52:34;13.60;1.00
42905;DHT22;28550;51.228;4.528;2022-09-29T16:55:35;13.50;1.00
42905;DHT22;28550;51.228;4.528;2022-09-29T16:58:09;13.40;3.40
42905;DHT22;28550;51.228;4.528;2022-09-29T17:00:37;13.20;14.30
42905;DHT22;28550;51.228;4.528;2022-09-29T17:03:04;13.20;11.40
42905;DHT22;28550;51.228;4.528;2022-09-29T17:05:34;13.10;10.80
42905;DHT22;28550;51.228;4.528;2022-09-29T17:08:02;13.00;17.00
42905;DHT22;28550;51.228;4.528;2022-09-29T17:10:28;12.80;24.80
42905;DHT22;28550;51.228;4.528;2022-09-29T17:12:55;12.60;35.70
42905;DHT22;28550;51.228;4.528;2022-09-29T17:15:25;12.50;43.40
42905;DHT22;28550;51.228;4.528;2022-09-29T17:17:51;12.30;51.10
42905;DHT22;28550;51.228;4.528;2022-09-29T17:20:22;12.20;54.80
42905;DHT22;28550;51.228;4.528;2022-09-29T17:23:06;12.10;61.80
42905;DHT22;28550;51.228;4.528;2022-09-29T17:25:35;12.00;65.10
42905;DHT22;28550;51.228;4.528;2022-09-29T17:28:23;11.90;65.80
42905;DHT22;28550;51.228;4.528;2022-09-29T17:30:50;11.80;68.70
42905;DHT22;28550;51.228;4.528;2022-09-29T17:33:17;11.70;71.90
42905;DHT22;28550;51.228;4.528;2022-09-29T17:35:45;11.70;75.40
42905;DHT22;28550;51.228;4.528;2022-09-29T17:38:15;11.60;77.40
42905;DHT22;28550;51.228;4.528;2022-09-29T17:41:00;11.50;76.60
42905;DHT22;28550;51.228;4.528;2022-09-29T17:43:43;11.50;79.50
42905;DHT22;28550;51.228;4.528;2022-09-29T17:46:13;11.50;76.70
42905;DHT22;28550;51.228;4.528;2022-09-29T17:48:48;11.50;76.00
42905;DHT22;28550;51.228;4.528;2022-09-29T17:51:17;11.40;77.40
42905;DHT22;28550;51.228;4.528;2022-09-29T17:54:06;11.30;77.60
42905;DHT22;28550;51.228;4.528;2022-09-29T17:56:39;11.30;82.40
42905;DHT22;28550;51.228;4.528;2022-09-29T17:59:06;11.30;81.10
42905;DHT22;28550;51.228;4.528;2022-09-29T18:01:35;11.20;81.50
42905;DHT22;28550;51.228;4.528;2022-09-29T18:04:17;11.10;84.30
42905;DHT22;28550;51.228;4.528;2022-09-29T18:06:45;11.10;81.20
42905;DHT22;28550;51.228;4.528;2022-09-29T18:09:19;11.10;80.60
42905;DHT22;28550;51.228;4.528;2022-09-29T18:11:47;11.10;85.00
42905;DHT22;28550;51.228;4.528;2022-09-29T18:14:14;11.10;80.20
42905;DHT22;28550;51.228;4.528;2022-09-29T18:16:39;11.00;80.90
42905;DHT22;28550;51.228;4.528;2022-09-29T18:19:29;11.00;80.10
42905;DHT22;28550;51.228;4.528;2022-09-29T18:22:05;11.00;85.20
42905;DHT22;28550;51.228;4.528;2022-09-29T18:24:33;10.90;85.00
42905;DHT22;28550;51.228;4.528;2022-09-29T18:27:04;10.90;83.70
42905;DHT22;28550;51.228;4.528;2022-09-29T18:30:15;10.80;80.90
42905;DHT22;28550;51.228;4.528;2022-09-29T18:32:56;10.90;86.60
42905;DHT22;28550;51.228;4.528;2022-09-29T18:35:38;10.80;86.30
42905;DHT22;28550;51.228;4.528;2022-09-29T18:38:10;10.70;87.20
42905;DHT22;28550;51.228;4.528;2022-09-29T18:40:48;10.70;89.80
42905;DHT22;28550;51.228;4.528;2022-09-29T18:43:24;10.60;89.80
42905;DHT22;28550;51.228;4.528;2022-09-29T18:45:53;10.60;85.30
42905;DHT22;28550;51.228;4.528;2022-09-29T18:48:19;10.60;89.00
42905;DHT22;28550;51.228;4.528;2022-09-29T18:50:50;10.60;87.10
42905;DHT22;28550;51.228;4.528;2022-09-29T18:53:19;10.60;88.80
42905;DHT22;28550;51.228;4.528;2022-09-29T18:58:42;10.50;89.10
42905;DHT22;28550;51.228;4.528;2022-09-29T19:01:17;10.50;88.60
42905;DHT22;28550;51.228;4.528;2022-09-29T19:04:05;10.50;90.60
42905;DHT22;28550;51.228;4.528;2022-09-29T19:07:02;10.40;90.70
42905;DHT22;28550;51.228;4.528;2022-09-29T19:09:56;10.40;91.30
42905;DHT22;28550;51.228;4.528;2022-09-29T19:12:46;10.30;90.90
42905;DHT22;28550;51.228;4.528;2022-09-29T19:15:16;10.30;90.40
42905;DHT22;28550;51.228;4.528;2022-09-29T19:17:42;10.20;91.10
42905;DHT22;28550;51.228;4.528;2022-09-29T19:20:16;10.20;90.90
42905;DHT22;28550;51.228;4.528;2022-09-29T19:22:49;10.20;91.20
42905;DHT22;28550;51.228;4.528;2022-09-29T19:25:19;10.20;91.00
42905;DHT22;28550;51.228;4.528;2022-09-29T19:27:48;10.20;91.00
42905;DHT22;28550;51.228;4.528;2022-09-29T19:30:18;10.20;90.70
42905;DHT22;28550;51.228;4.528;2022-09-29T19:32:46;10.20;91.00
42905;DHT22;28550;51.228;4.528;2022-09-29T19:35:22;10.10;90.70
42905;DHT22;28550;51.228;4.528;2022-09-29T19:37:51;10.10;91.20
42905;DHT22;28550;51.228;4.528;2022-09-29T19:40:24;10.10;90.80
42905;DHT22;28550;51.228;4.528;2022-09-29T19:42:51;10.00;91.10
42905;DHT22;28550;51.228;4.528;2022-09-29T19:45:17;10.00;91.00
42905;DHT22;28550;51.228;4.528;2022-09-29T19:47:43;10.00;90.00
42905;DHT22;28550;51.228;4.528;2022-09-29T19:50:33;9.90;91.20
42905;DHT22;28550;51.228;4.528;2022-09-29T19:53:18;9.90;91.30
42905;DHT22;28550;51.228;4.528;2022-09-29T19:55:47;9.80;90.70
42905;DHT22;28550;51.228;4.528;2022-09-29T19:58:20;9.80;90.80
42905;DHT22;28550;51.228;4.528;2022-09-29T20:00:46;9.70;90.50
42905;DHT22;28550;51.228;4.528;2022-09-29T20:03:12;9.70;90.80
42905;DHT22;28550;51.228;4.528;2022-09-29T20:05:37;9.70;90.30
42905;DHT22;28550;51.228;4.528;2022-09-29T20:08:04;9.70;90.40
42905;DHT22;28550;51.228;4.528;2022-09-29T20:10:33;9.70;90.80
42905;DHT22;28550;51.228;4.528;2022-09-29T20:13:01;9.70;91.70
42905;DHT22;28550;51.228;4.528;2022-09-29T20:18:05;9.60;90.60
42905;DHT22;28550;51.228;4.528;2022-09-29T20:20:31;9.60;90.70
42905;DHT22;28550;51.228;4.528;2022-09-29T20:22:57;9.50;90.90
42905;DHT22;28550;51.228;4.528;2022-09-29T20:25:29;9.60;91.00
42905;DHT22;28550;51.228;4.528;2022-09-29T20:27:55;9.50;89.10
42905;DHT22;28550;51.228;4.528;2022-09-29T20:30:23;9.50;90.70
42905;DHT22;28550;51.228;4.528;2022-09-29T20:33:09;9.40;90.80
42905;DHT22;28550;51.228;4.528;2022-09-29T20:35:37;9.40;89.60
42905;DHT22;28550;51.228;4.528;2022-09-29T20:41:22;9.40;91.80
42905;DHT22;28550;51.228;4.528;2022-09-29T20:44:10;9.40;91.30
42905;DHT22;28550;51.228;4.528;2022-09-29T20:46:55;9.30;91.00
42905;DHT22;28550;51.228;4.528;2022-09-29T20:49:27;9.30;90.60
42905;DHT22;28550;51.228;4.528;2022-09-29T20:51:53;9.30;88.60
42905;DHT22;28550;51.228;4.528;2022-09-29T20:54:55;9.30;91.30
42905;DHT22;28550;51.228;4.528;2022-09-29T20:57:58;9.20;91.30
42905;DHT22;28550;51.228;4.528;2022-09-29T21:01:01;9.30;91.70
42905;DHT22;28550;51.228;4.528;2022-09-29T21:04:17;9.30;91.10
42905;DHT22;28550;51.228;4.528;2022-09-29T21:07:32;9.10;92.00
42905;DHT22;28550;51.228;4.528;2022-09-29T21:10:14;9.10;92.10
42905;DHT22;28550;51.228;4.528;2022-09-29T21:12:56;9.10;89.50
42905;DHT22;28550;51.228;4.528;2022-09-29T21:15:43;9.00;91.80
42905;DHT22;28550;51.228;4.528;2022-09-29T21:18:09;8.90;91.00
42905;DHT22;28550;51.228;4.528;2022-09-29T21:20:37;8.90;91.70
42905;DHT22;28550;51.228;4.528;2022-09-29T21:23:04;9.00;91.50
42905;DHT22;28550;51.228;4.528;2022-09-29T21:26:07;8.90;90.80
42905;DHT22;28550;51.228;4.528;2022-09-29T21:28:36;8.90;91.80
42905;DHT22;28550;51.228;4.528;2022-09-29T21:31:26;8.90;91.30
42905;DHT22;28550;51.228;4.528;2022-09-29T21:34:05;8.90;92.70
42905;DHT22;28550;51.228;4.528;2022-09-29T21:36:35;8.90;91.70
42905;DHT22;28550;51.228;4.528;2022-09-29T21:39:01;8.80;92.50
42905;DHT22;28550;51.228;4.528;2022-09-29T21:41:29;8.80;92.80
42905;DHT22;28550;51.228;4.528;2022-09-29T21:44:02;8.80;92.80
42905;DHT22;28550;51.228;4.528;2022-09-29T21:46:37;8.80;92.10
42905;DHT22;28550;51.228;4.528;2022-09-29T21:49:05;8.60;92.10
42905;DHT22;28550;51.228;4.528;2022-09-29T21:51:43;8.70;91.60
42905;DHT22;28550;51.228;4.528;2022-09-29T21:54:14;8.70;92.30
42905;DHT22;28550;51.228;4.528;2022-09-29T21:56:44;8.60;91.80
42905;DHT22;28550;51.228;4.528;2022-09-29T21:59:14;8.70;91.00
42905;DHT22;28550;51.228;4.528;2022-09-29T22:01:42;8.60;92.20
42905;DHT22;28550;51.228;4.528;2022-09-29T22:04:08;8.50;92.30